createdAt,value
2022-12-07T00:00:36.412Z,1007.11
2022-12-07T00:01:36.396Z,1007.11
2022-12-07T00:02:36.437Z,1007.17
2022-12-07T00:03:36.887Z,1007.10
2022-12-07T00:04:36.378Z,1007.12
2022-12-07T00:05:36.347Z,1007.13
2022-12-07T00:06:45.251Z,1007.10
2022-12-07T00:07:36.416Z,1007.15
2022-12-07T00:08:36.336Z,1007.05
2022-12-07T00:09:36.319Z,1007.10
2022-12-07T00:10:36.293Z,1006.97
2022-12-07T00:11:36.282Z,1007.17
2022-12-07T00:12:36.295Z,1007.02
2022-12-07T00:13:36.265Z,1007.09
2022-12-07T00:14:36.280Z,1006.99
2022-12-07T00:15:36.235Z,1007.00
2022-12-07T00:16:36.489Z,1006.95
2022-12-07T00:17:36.219Z,1006.97
2022-12-07T00:18:36.204Z,1007.02
2022-12-07T00:19:36.225Z,1006.99
2022-12-07T00:20:36.189Z,1006.98
2022-12-07T00:21:36.178Z,1007.00
2022-12-07T00:22:36.164Z,1006.98
2022-12-07T00:23:36.154Z,1006.95
2022-12-07T00:24:36.133Z,1006.93
2022-12-07T00:25:36.166Z,1006.97
2022-12-07T00:26:36.126Z,1006.92
2022-12-07T00:27:36.125Z,1006.98
2022-12-07T00:28:36.099Z,1006.89
2022-12-07T00:29:36.096Z,1006.86
2022-12-07T00:30:36.098Z,1006.90
2022-12-07T00:31:36.192Z,1006.86
2022-12-07T00:32:36.053Z,1006.86
2022-12-07T00:33:36.052Z,1006.85
2022-12-07T00:34:36.044Z,1006.83
2022-12-07T00:35:36.022Z,1006.81
2022-12-07T00:36:36.017Z,1006.82
2022-12-07T00:37:36.002Z,1006.78
2022-12-07T00:38:35.990Z,1006.83
2022-12-07T00:39:36.010Z,1006.80
2022-12-07T00:40:35.969Z,1006.82
2022-12-07T00:41:35.970Z,1006.73
2022-12-07T00:42:35.958Z,1006.75
2022-12-07T00:43:35.971Z,1006.73
2022-12-07T00:44:35.933Z,1006.75
2022-12-07T00:45:35.970Z,1006.79
2022-12-07T00:46:35.932Z,1006.76
2022-12-07T00:47:35.904Z,1006.82
2022-12-07T00:48:35.877Z,1006.79
2022-12-07T00:49:35.892Z,1006.78
2022-12-07T00:50:35.874Z,1006.72
2022-12-07T00:51:35.854Z,1006.76
2022-12-07T00:52:35.859Z,1006.76
2022-12-07T00:53:41.142Z,1006.78
2022-12-07T00:54:36.825Z,1006.75
2022-12-07T00:55:35.826Z,1006.75
2022-12-07T00:56:35.793Z,1006.73
2022-12-07T00:57:35.787Z,1006.75
2022-12-07T00:58:35.773Z,1006.77
2022-12-07T00:59:35.792Z,1006.76
2022-12-07T01:00:35.751Z,1006.75
2022-12-07T01:01:35.810Z,1006.68
2022-12-07T01:02:35.754Z,1006.66
2022-12-07T01:03:35.796Z,1006.66
2022-12-07T01:04:35.717Z,1006.65
2022-12-07T01:05:35.703Z,1006.63
2022-12-07T01:06:35.793Z,1006.62
2022-12-07T01:07:35.736Z,1006.64
2022-12-07T01:08:35.678Z,1006.61
2022-12-07T01:09:35.664Z,1006.69
2022-12-07T01:10:35.651Z,1006.59
2022-12-07T01:11:35.647Z,1006.59
2022-12-07T01:12:35.657Z,1006.61
2022-12-07T01:13:35.622Z,1006.63
2022-12-07T01:14:35.601Z,1006.55
2022-12-07T01:15:35.589Z,1006.57
2022-12-07T01:16:35.630Z,1006.56
2022-12-07T01:17:35.581Z,1006.51
2022-12-07T01:18:35.600Z,1006.52
2022-12-07T01:19:35.550Z,1006.48
2022-12-07T01:20:35.538Z,1006.48
2022-12-07T01:21:35.535Z,1006.47
2022-12-07T01:22:35.528Z,1006.49
2022-12-07T01:23:35.541Z,1006.50
2022-12-07T01:24:35.505Z,1006.50
2022-12-07T01:25:35.483Z,1006.52
2022-12-07T01:26:35.477Z,1006.49
2022-12-07T01:27:35.461Z,1006.47
2022-12-07T01:28:35.479Z,1006.48
2022-12-07T01:29:35.448Z,1006.48
2022-12-07T01:30:35.479Z,1006.46
2022-12-07T01:31:35.425Z,1006.43
2022-12-07T01:32:35.421Z,1006.45
2022-12-07T01:33:35.401Z,1006.45
2022-12-07T01:34:35.447Z,1006.40
2022-12-07T01:35:35.388Z,1006.40
2022-12-07T01:36:35.382Z,1006.42
2022-12-07T01:37:35.352Z,1006.36
2022-12-07T01:38:35.345Z,1006.36
2022-12-07T01:39:35.344Z,1006.39
2022-12-07T01:40:35.349Z,1006.38
2022-12-07T01:41:35.333Z,1006.38
2022-12-07T01:42:35.304Z,1006.39
2022-12-07T01:43:35.295Z,1006.37
2022-12-07T01:44:35.300Z,1006.38
2022-12-07T01:45:35.309Z,1006.38
2022-12-07T01:46:35.431Z,1006.33
2022-12-07T01:47:35.251Z,1006.34
2022-12-07T01:48:35.243Z,1006.32
2022-12-07T01:49:35.250Z,1006.32
2022-12-07T01:50:35.258Z,1006.31
2022-12-07T01:51:35.213Z,1006.31
2022-12-07T01:52:35.203Z,1006.30
2022-12-07T01:53:35.189Z,1006.26
2022-12-07T01:54:35.227Z,1006.25
2022-12-07T01:55:35.184Z,1006.20
2022-12-07T01:56:35.182Z,1006.20
2022-12-07T01:57:35.157Z,1006.22
2022-12-07T01:58:35.143Z,1006.18
2022-12-07T01:59:35.132Z,1006.17
2022-12-07T02:00:35.113Z,1006.12
2022-12-07T02:01:35.168Z,1006.12
2022-12-07T02:02:35.173Z,1006.11
2022-12-07T02:03:35.086Z,1006.11
2022-12-07T02:04:35.084Z,1006.12
2022-12-07T02:05:35.087Z,1006.03
2022-12-07T02:06:35.077Z,1006.05
2022-12-07T02:07:35.137Z,1006.08
2022-12-07T02:08:35.032Z,1006.08
2022-12-07T02:09:35.037Z,1006.06
2022-12-07T02:10:35.005Z,1006.07
2022-12-07T02:11:34.996Z,1006.02
2022-12-07T02:12:34.987Z,1006.01
2022-12-07T02:13:34.996Z,1006.03
2022-12-07T02:14:34.991Z,1006.02
2022-12-07T02:15:35.017Z,1005.99
2022-12-07T02:16:34.940Z,1006.01
2022-12-07T02:17:34.927Z,1006.01
2022-12-07T02:18:34.932Z,1005.97
2022-12-07T02:19:34.913Z,1006.02
2022-12-07T02:20:34.998Z,1006.01
2022-12-07T02:21:34.886Z,1006.01
2022-12-07T02:22:34.906Z,1006.00
2022-12-07T02:23:34.865Z,1006.01
2022-12-07T02:24:34.855Z,1005.96
2022-12-07T02:25:34.884Z,1006.03
2022-12-07T02:26:34.833Z,1005.95
2022-12-07T02:27:34.865Z,1006.00
2022-12-07T02:28:34.818Z,1005.98
2022-12-07T02:29:34.808Z,1005.93
2022-12-07T02:30:34.928Z,1005.95
2022-12-07T02:31:34.854Z,1005.91
2022-12-07T02:32:34.806Z,1005.96
2022-12-07T02:33:34.756Z,1005.93
2022-12-07T02:34:34.757Z,1005.88
2022-12-07T02:35:34.793Z,1005.89
2022-12-07T02:36:34.729Z,1005.84
2022-12-07T02:37:34.752Z,1005.80
2022-12-07T02:38:34.734Z,1005.82
2022-12-07T02:39:34.698Z,1005.80
2022-12-07T02:40:34.724Z,1005.79
2022-12-07T02:41:34.713Z,1005.78
2022-12-07T02:42:34.668Z,1005.77
2022-12-07T02:43:34.676Z,1005.73
2022-12-07T02:44:34.648Z,1005.74
2022-12-07T02:45:34.640Z,1005.72
2022-12-07T02:46:34.691Z,1005.71
2022-12-07T02:47:34.676Z,1005.68
2022-12-07T02:48:34.609Z,1005.69
2022-12-07T02:49:34.609Z,1005.74
2022-12-07T02:50:34.589Z,1005.72
2022-12-07T02:51:34.575Z,1005.73
2022-12-07T02:52:34.559Z,1005.75
2022-12-07T02:53:34.584Z,1005.69
2022-12-07T02:54:34.590Z,1005.69
2022-12-07T02:55:34.544Z,1005.70
2022-12-07T02:56:34.516Z,1005.69
2022-12-07T02:57:34.507Z,1005.72
2022-12-07T02:58:34.525Z,1005.69
2022-12-07T02:59:34.512Z,1005.62
2022-12-07T03:00:34.512Z,1005.59
2022-12-07T03:01:34.493Z,1005.57
2022-12-07T03:02:34.637Z,1005.61
2022-12-07T03:03:34.538Z,1005.64
2022-12-07T03:04:34.438Z,1005.63
2022-12-07T03:05:34.429Z,1005.58
2022-12-07T03:06:34.407Z,1005.56
2022-12-07T03:07:34.529Z,1005.57
2022-12-07T03:08:34.433Z,1005.56
2022-12-07T03:09:34.430Z,1005.53
2022-12-07T03:10:34.396Z,1005.50
2022-12-07T03:11:34.377Z,1005.47
2022-12-07T03:12:34.396Z,1005.45
2022-12-07T03:13:34.359Z,1005.42
2022-12-07T03:14:34.382Z,1005.35
2022-12-07T03:15:34.352Z,1005.31
2022-12-07T03:16:34.305Z,1005.34
2022-12-07T03:17:34.299Z,1005.33
2022-12-07T03:18:34.292Z,1005.30
2022-12-07T03:19:34.307Z,1005.31
2022-12-07T03:20:34.271Z,1005.32
2022-12-07T03:21:34.249Z,1005.28
2022-12-07T03:22:34.244Z,1005.23
2022-12-07T03:23:34.230Z,1005.23
2022-12-07T03:24:34.240Z,1005.27
2022-12-07T03:25:34.442Z,1005.24
2022-12-07T03:26:34.240Z,1005.22
2022-12-07T03:27:34.214Z,1005.26
2022-12-07T03:28:34.307Z,1005.21
2022-12-07T03:29:34.172Z,1005.19
2022-12-07T03:30:34.158Z,1005.15
2022-12-07T03:31:34.224Z,1005.12
2022-12-07T03:32:34.140Z,1005.12
2022-12-07T03:33:34.129Z,1005.13
2022-12-07T03:34:34.128Z,1005.00
2022-12-07T03:35:34.100Z,1005.05
2022-12-07T03:36:34.153Z,1005.04
2022-12-07T03:37:34.121Z,1005.00
2022-12-07T03:38:34.082Z,1005.07
2022-12-07T03:39:34.059Z,1004.99
2022-12-07T03:40:34.807Z,1004.97
2022-12-07T03:41:34.039Z,1004.90
2022-12-07T03:42:34.091Z,1004.94
2022-12-07T03:43:34.143Z,1004.87
2022-12-07T03:44:34.010Z,1004.87
2022-12-07T03:45:34.011Z,1004.85
2022-12-07T03:46:34.047Z,1004.86
2022-12-07T03:47:33.989Z,1004.85
2022-12-07T03:48:34.021Z,1004.77
2022-12-07T03:49:33.984Z,1004.77
2022-12-07T03:50:33.961Z,1004.77
2022-12-07T03:51:33.977Z,1004.75
2022-12-07T03:52:33.967Z,1004.78
2022-12-07T03:53:33.928Z,1004.74
2022-12-07T03:54:33.943Z,1004.72
2022-12-07T03:55:33.895Z,1004.69
2022-12-07T03:56:33.890Z,1004.67
2022-12-07T03:57:33.912Z,1004.65
2022-12-07T03:58:33.884Z,1004.63
2022-12-07T03:59:33.859Z,1004.62
2022-12-07T04:00:33.848Z,1004.57
2022-12-07T04:01:33.875Z,1004.59
2022-12-07T04:02:33.914Z,1004.60
2022-12-07T04:03:33.810Z,1004.54
2022-12-07T04:04:33.841Z,1004.57
2022-12-07T04:05:33.786Z,1004.63
2022-12-07T04:06:33.796Z,1004.58
2022-12-07T04:07:33.831Z,1004.58
2022-12-07T04:08:33.811Z,1004.55
2022-12-07T04:09:33.745Z,1004.57
2022-12-07T04:10:33.736Z,1004.53
2022-12-07T04:11:33.739Z,1004.57
2022-12-07T04:12:33.742Z,1004.54
2022-12-07T04:13:33.700Z,1004.57
2022-12-07T04:14:33.755Z,1004.51
2022-12-07T04:15:33.688Z,1004.48
2022-12-07T04:16:33.806Z,1004.49
2022-12-07T04:17:33.671Z,1004.45
2022-12-07T04:18:33.646Z,1004.44
2022-12-07T04:19:33.645Z,1004.43
2022-12-07T04:20:33.650Z,1004.41
2022-12-07T04:21:33.633Z,1004.42
2022-12-07T04:22:33.606Z,1004.37
2022-12-07T04:23:33.612Z,1004.33
2022-12-07T04:24:33.588Z,1004.34
2022-12-07T04:25:33.600Z,1004.37
2022-12-07T04:26:33.567Z,1004.35
2022-12-07T04:27:33.568Z,1004.35
2022-12-07T04:28:33.550Z,1004.34
2022-12-07T04:29:33.570Z,1004.36
2022-12-07T04:30:33.550Z,1004.34
2022-12-07T04:31:33.647Z,1004.25
2022-12-07T04:32:33.515Z,1004.26
2022-12-07T04:33:33.496Z,1004.24
2022-12-07T04:34:33.486Z,1004.29
2022-12-07T04:35:33.508Z,1004.22
2022-12-07T04:36:33.470Z,1004.24
2022-12-07T04:37:33.446Z,1004.24
2022-12-07T04:38:33.451Z,1004.23
2022-12-07T04:39:33.429Z,1004.16
2022-12-07T04:40:33.452Z,1004.11
2022-12-07T04:41:33.418Z,1004.11
2022-12-07T04:42:33.395Z,1004.09
2022-12-07T04:43:33.398Z,1004.07
2022-12-07T04:44:33.382Z,1004.09
2022-12-07T04:45:33.387Z,1004.06
2022-12-07T04:46:33.418Z,1004.12
2022-12-07T04:47:33.362Z,1004.10
2022-12-07T04:48:33.338Z,1004.12
2022-12-07T04:49:33.328Z,1004.11
2022-12-07T04:50:33.320Z,1004.05
2022-12-07T04:51:33.300Z,1004.04
2022-12-07T04:52:33.416Z,1004.05
2022-12-07T04:53:33.278Z,1004.05
2022-12-07T04:54:33.266Z,1004.07
2022-12-07T04:55:33.262Z,1004.02
2022-12-07T04:56:33.262Z,1004.05
2022-12-07T04:57:33.264Z,1004.04
2022-12-07T04:58:33.230Z,1004.06
2022-12-07T04:59:33.216Z,1004.04
2022-12-07T05:00:33.341Z,1004.04
2022-12-07T05:01:33.194Z,1004.03
2022-12-07T05:02:33.258Z,1003.97
2022-12-07T05:03:33.189Z,1003.93
2022-12-07T05:04:33.173Z,1003.94
2022-12-07T05:05:33.159Z,1003.98
2022-12-07T05:06:33.135Z,1004.01
2022-12-07T05:07:33.141Z,1004.02
2022-12-07T05:08:33.131Z,1003.94
2022-12-07T05:09:33.124Z,1003.98
2022-12-07T05:10:33.106Z,1003.92
2022-12-07T05:11:33.090Z,1003.95
2022-12-07T05:12:33.081Z,1003.95
2022-12-07T05:13:33.073Z,1003.98
2022-12-07T05:14:33.085Z,1004.00
2022-12-07T05:15:33.052Z,1003.97
2022-12-07T05:16:33.121Z,1003.97
2022-12-07T05:17:33.059Z,1003.97
2022-12-07T05:18:33.025Z,1003.87
2022-12-07T05:19:33.038Z,1003.91
2022-12-07T05:20:36.568Z,1003.90
2022-12-07T05:21:33.980Z,1003.93
2022-12-07T05:22:32.968Z,1003.90
2022-12-07T05:23:32.953Z,1003.88
2022-12-07T05:24:32.972Z,1003.87
2022-12-07T05:25:32.966Z,1003.85
2022-12-07T05:26:32.934Z,1003.89
2022-12-07T05:27:32.922Z,1003.76
2022-12-07T05:28:32.907Z,1003.81
2022-12-07T05:29:32.894Z,1003.75
2022-12-07T05:30:32.900Z,1003.79
2022-12-07T05:31:32.935Z,1003.83
2022-12-07T05:32:32.871Z,1003.79
2022-12-07T05:33:32.874Z,1003.81
2022-12-07T05:34:32.865Z,1003.78
2022-12-07T05:35:32.838Z,1003.79
2022-12-07T05:36:32.855Z,1003.82
2022-12-07T05:37:32.817Z,1003.75
2022-12-07T05:38:32.807Z,1003.77
2022-12-07T05:39:32.796Z,1003.77
2022-12-07T05:40:32.800Z,1003.76
2022-12-07T05:41:32.803Z,1003.76
2022-12-07T05:42:32.756Z,1003.74
2022-12-07T05:43:32.749Z,1003.74
2022-12-07T05:44:32.782Z,1003.73
2022-12-07T05:45:32.761Z,1003.74
2022-12-07T05:46:32.710Z,1003.73
2022-12-07T05:47:32.719Z,1003.67
2022-12-07T05:48:32.699Z,1003.71
2022-12-07T05:49:32.692Z,1003.68
2022-12-07T05:50:32.724Z,1003.67
2022-12-07T05:51:32.687Z,1003.65
2022-12-07T05:52:32.681Z,1003.66
2022-12-07T05:53:32.672Z,1003.71
2022-12-07T05:54:32.709Z,1003.66
2022-12-07T05:55:32.617Z,1003.66
2022-12-07T05:56:32.628Z,1003.64
2022-12-07T05:57:32.628Z,1003.60
2022-12-07T05:58:32.639Z,1003.64
2022-12-07T05:59:32.582Z,1003.57
2022-12-07T06:00:32.580Z,1003.60
2022-12-07T06:01:32.555Z,1003.56
2022-12-07T06:02:32.656Z,1003.53
2022-12-07T06:03:32.593Z,1003.51
2022-12-07T06:04:32.551Z,1003.49
2022-12-07T06:05:32.512Z,1003.43
2022-12-07T06:06:32.655Z,1003.40
2022-12-07T06:07:40.411Z,1003.33
2022-12-07T06:08:32.531Z,1003.39
2022-12-07T06:09:32.477Z,1003.36
2022-12-07T06:10:32.455Z,1003.35
2022-12-07T06:11:32.442Z,1003.34
2022-12-07T06:12:32.428Z,1003.35
2022-12-07T06:13:32.420Z,1003.35
2022-12-07T06:14:32.474Z,1003.31
2022-12-07T06:15:32.414Z,1003.20
2022-12-07T06:16:32.500Z,1003.29
2022-12-07T06:17:32.370Z,1003.26
2022-12-07T06:18:32.371Z,1003.30
2022-12-07T06:19:32.366Z,1003.29
2022-12-07T06:20:32.350Z,1003.29
2022-12-07T06:21:32.332Z,1003.24
2022-12-07T06:22:32.355Z,1003.20
2022-12-07T06:23:32.311Z,1003.22
2022-12-07T06:24:32.319Z,1003.27
2022-12-07T06:25:32.289Z,1003.26
2022-12-07T06:26:32.295Z,1003.26
2022-12-07T06:27:32.268Z,1003.24
2022-12-07T06:28:32.265Z,1003.20
2022-12-07T06:29:32.248Z,1003.22
2022-12-07T06:30:32.245Z,1003.24
2022-12-07T06:31:32.300Z,1003.24
2022-12-07T06:32:32.214Z,1003.19
2022-12-07T06:33:32.228Z,1003.19
2022-12-07T06:34:32.204Z,1003.19
2022-12-07T06:35:32.193Z,1003.26
2022-12-07T06:36:32.178Z,1003.21
2022-12-07T06:37:32.173Z,1003.22
2022-12-07T06:38:32.195Z,1003.23
2022-12-07T06:39:32.152Z,1003.20
2022-12-07T06:40:32.139Z,1003.23
2022-12-07T06:41:32.128Z,1003.25
2022-12-07T06:42:32.116Z,1003.27
2022-12-07T06:43:32.119Z,1003.26
2022-12-07T06:44:32.089Z,1003.30
2022-12-07T06:45:32.166Z,1003.22
2022-12-07T06:46:32.152Z,1003.30
2022-12-07T06:47:40.479Z,1003.22
2022-12-07T06:48:32.068Z,1003.23
2022-12-07T06:49:32.038Z,1003.27
2022-12-07T06:50:32.024Z,1003.29
2022-12-07T06:51:32.023Z,1003.26
2022-12-07T06:52:32.013Z,1003.23
2022-12-07T06:53:32.002Z,1003.22
2022-12-07T06:54:31.998Z,1003.27
2022-12-07T06:55:31.979Z,1003.20
2022-12-07T06:56:31.972Z,1003.26
2022-12-07T06:57:31.947Z,1003.19
2022-12-07T06:58:31.961Z,1003.18
2022-12-07T06:59:31.931Z,1003.16
2022-12-07T07:00:31.925Z,1003.15
2022-12-07T07:01:31.963Z,1003.16
2022-12-07T07:02:31.948Z,1003.16
2022-12-07T07:03:31.886Z,1003.22
2022-12-07T07:04:31.886Z,1003.22
2022-12-07T07:05:31.869Z,1003.12
2022-12-07T07:06:31.886Z,1003.17
2022-12-07T07:07:33.451Z,1003.17
2022-12-07T07:08:32.894Z,1003.19
2022-12-07T07:09:31.823Z,1003.13
2022-12-07T07:10:31.840Z,1003.18
2022-12-07T07:11:31.807Z,1003.20
2022-12-07T07:12:31.803Z,1003.19
2022-12-07T07:13:31.802Z,1003.12
2022-12-07T07:14:31.779Z,1003.13
2022-12-07T07:15:31.765Z,1003.16
2022-12-07T07:16:31.843Z,1003.20
2022-12-07T07:17:31.757Z,1003.14
2022-12-07T07:18:31.752Z,1003.22
2022-12-07T07:19:31.718Z,1003.22
2022-12-07T07:20:31.706Z,1003.18
2022-12-07T07:21:31.702Z,1003.26
2022-12-07T07:22:31.686Z,1003.27
2022-12-07T07:23:31.691Z,1003.29
2022-12-07T07:24:31.672Z,1003.25
2022-12-07T07:25:31.651Z,1003.24
2022-12-07T07:26:31.755Z,1003.20
2022-12-07T07:27:31.652Z,1003.20
2022-12-07T07:28:31.622Z,1003.27
2022-12-07T07:29:31.627Z,1003.19
2022-12-07T07:30:31.644Z,1003.27
2022-12-07T07:31:31.599Z,1003.30
2022-12-07T07:32:31.593Z,1003.31
2022-12-07T07:33:31.601Z,1003.32
2022-12-07T07:34:31.558Z,1003.29
2022-12-07T07:35:31.547Z,1003.24
2022-12-07T07:36:31.542Z,1003.16
2022-12-07T07:37:31.533Z,1003.11
2022-12-07T07:38:31.514Z,1003.21
2022-12-07T07:39:31.524Z,1003.15
2022-12-07T07:40:31.502Z,1003.11
2022-12-07T07:41:31.482Z,1003.15
2022-12-07T07:42:31.495Z,1003.12
2022-12-07T07:43:31.469Z,1003.17
2022-12-07T07:44:35.031Z,1003.16
2022-12-07T07:45:31.454Z,1003.18
2022-12-07T07:46:31.579Z,1003.18
2022-12-07T07:47:31.426Z,1003.25
2022-12-07T07:48:31.421Z,1003.25
2022-12-07T07:49:31.413Z,1003.26
2022-12-07T07:50:31.399Z,1003.23
2022-12-07T07:51:31.387Z,1003.23
2022-12-07T07:52:31.379Z,1003.19
2022-12-07T07:53:31.359Z,1003.19
2022-12-07T07:54:31.352Z,1003.19
2022-12-07T07:55:31.370Z,1003.19
2022-12-07T07:56:31.328Z,1003.26
2022-12-07T07:57:31.320Z,1003.22
2022-12-07T07:58:31.320Z,1003.21
2022-12-07T07:59:31.298Z,1003.26
2022-12-07T08:00:31.284Z,1003.27
2022-12-07T08:01:31.393Z,1003.31
2022-12-07T08:02:31.258Z,1003.29
2022-12-07T08:03:31.257Z,1003.30
2022-12-07T08:04:31.277Z,1003.29
2022-12-07T08:05:31.239Z,1003.29
2022-12-07T08:06:32.528Z,1003.27
2022-12-07T08:07:31.217Z,1003.27
2022-12-07T08:08:31.270Z,1003.27
2022-12-07T08:09:31.189Z,1003.27
2022-12-07T08:10:31.189Z,1003.39
2022-12-07T08:11:31.170Z,1003.37
2022-12-07T08:12:31.217Z,1003.38
2022-12-07T08:13:31.874Z,1003.30
2022-12-07T08:14:31.146Z,1003.32
2022-12-07T08:15:31.197Z,1003.33
2022-12-07T08:16:31.195Z,1003.35
2022-12-07T08:17:31.098Z,1003.35
2022-12-07T08:18:31.112Z,1003.35
2022-12-07T08:19:31.089Z,1003.31
2022-12-07T08:20:31.074Z,1003.32
2022-12-07T08:21:31.067Z,1003.30
2022-12-07T08:22:31.052Z,1003.31
2022-12-07T08:23:37.514Z,1003.31
2022-12-07T08:24:31.022Z,1003.34
2022-12-07T08:25:31.019Z,1003.31
2022-12-07T08:26:31.026Z,1003.31
2022-12-07T08:27:30.996Z,1003.35
2022-12-07T08:28:31.008Z,1003.38
2022-12-07T08:29:30.976Z,1003.35
2022-12-07T08:30:30.986Z,1003.40
2022-12-07T08:31:31.029Z,1003.31
2022-12-07T08:32:30.950Z,1003.49
2022-12-07T08:33:30.935Z,1003.37
2022-12-07T08:34:30.943Z,1003.43
2022-12-07T08:35:30.912Z,1003.46
2022-12-07T08:36:30.901Z,1003.50
2022-12-07T08:37:30.896Z,1003.52
2022-12-07T08:38:32.132Z,1003.46
2022-12-07T08:39:32.353Z,1003.48
2022-12-07T08:40:30.857Z,1003.46
2022-12-07T08:41:30.853Z,1003.46
2022-12-07T08:42:30.897Z,1003.42
2022-12-07T08:43:30.826Z,1003.52
2022-12-07T08:44:30.826Z,1003.58
2022-12-07T08:45:30.803Z,1003.56
2022-12-07T08:46:30.925Z,1003.47
2022-12-07T08:47:30.779Z,1003.57
2022-12-07T08:48:30.763Z,1003.53
2022-12-07T08:49:30.772Z,1003.50
2022-12-07T08:50:30.749Z,1003.59
2022-12-07T08:51:30.731Z,1003.61
2022-12-07T08:52:30.727Z,1003.64
2022-12-07T08:53:30.713Z,1003.56
2022-12-07T08:54:30.726Z,1003.57
2022-12-07T08:55:30.696Z,1003.50
2022-12-07T08:56:30.704Z,1003.61
2022-12-07T08:57:30.666Z,1003.63
2022-12-07T08:58:30.692Z,1003.69
2022-12-07T08:59:30.646Z,1003.52
2022-12-07T09:00:30.649Z,1003.73
2022-12-07T09:01:30.699Z,1003.68
2022-12-07T09:02:30.649Z,1003.70
2022-12-07T09:03:30.612Z,1003.74
2022-12-07T09:04:30.612Z,1003.70
2022-12-07T09:05:30.623Z,1003.72
2022-12-07T09:06:30.712Z,1003.77
2022-12-07T09:07:30.564Z,1003.81
2022-12-07T09:08:30.552Z,1003.79
2022-12-07T09:09:30.551Z,1003.75
2022-12-07T09:10:30.556Z,1003.72
2022-12-07T09:11:30.529Z,1003.74
2022-12-07T09:12:30.506Z,1003.82
2022-12-07T09:13:30.497Z,1003.72
2022-12-07T09:14:30.509Z,1003.77
2022-12-07T09:15:30.501Z,1003.80
2022-12-07T09:16:30.558Z,1003.86
2022-12-07T09:17:30.465Z,1003.81
2022-12-07T09:18:30.526Z,1003.89
2022-12-07T09:19:30.436Z,1003.82
2022-12-07T09:20:30.460Z,1003.82
2022-12-07T09:21:30.418Z,1003.86
2022-12-07T09:22:30.408Z,1003.88
2022-12-07T09:23:30.399Z,1003.83
2022-12-07T09:24:30.388Z,1003.79
2022-12-07T09:25:30.371Z,1003.87
2022-12-07T09:26:30.377Z,1003.82
2022-12-07T09:27:30.355Z,1003.82
2022-12-07T09:28:30.349Z,1003.75
2022-12-07T09:29:30.335Z,1003.83
2022-12-07T09:30:30.317Z,1003.78
2022-12-07T09:31:30.424Z,1003.82
2022-12-07T09:32:30.352Z,1003.79
2022-12-07T09:33:30.298Z,1003.87
2022-12-07T09:34:30.385Z,1003.78
2022-12-07T09:35:30.273Z,1003.88
2022-12-07T09:36:30.269Z,1003.77
2022-12-07T09:37:30.252Z,1003.86
2022-12-07T09:38:30.244Z,1003.92
2022-12-07T09:39:30.220Z,1003.85
2022-12-07T09:40:30.231Z,1003.86
2022-12-07T09:41:30.205Z,1003.83
2022-12-07T09:42:30.321Z,1003.87
2022-12-07T09:43:30.180Z,1003.94
2022-12-07T09:44:30.161Z,1003.95
2022-12-07T09:45:30.167Z,1003.99
2022-12-07T09:46:30.231Z,1004.01
2022-12-07T09:47:30.171Z,1004.04
2022-12-07T09:48:30.151Z,1003.98
2022-12-07T09:49:30.127Z,1004.07
2022-12-07T09:50:30.130Z,1003.97
2022-12-07T09:51:30.102Z,1004.02
2022-12-07T09:52:34.209Z,1004.03
2022-12-07T09:53:30.077Z,1004.05
2022-12-07T09:54:30.076Z,1004.06
2022-12-07T09:55:30.073Z,1004.03
2022-12-07T09:56:30.045Z,1003.99
2022-12-07T09:57:30.062Z,1004.01
2022-12-07T09:58:30.020Z,1004.01
2022-12-07T09:59:35.131Z,1004.02
2022-12-07T10:00:30.003Z,1003.99
2022-12-07T10:01:30.019Z,1004.01
2022-12-07T10:02:29.974Z,1004.01
2022-12-07T10:03:29.987Z,1004.07
2022-12-07T10:04:29.975Z,1004.03
2022-12-07T10:05:30.087Z,1004.11
2022-12-07T10:06:29.959Z,1004.07
2022-12-07T10:07:29.922Z,1004.08
2022-12-07T10:08:29.992Z,1004.07
2022-12-07T10:09:29.914Z,1004.04
2022-12-07T10:10:31.655Z,1004.09
2022-12-07T10:11:29.876Z,1004.08
2022-12-07T10:12:29.888Z,1004.13
2022-12-07T10:13:29.858Z,1004.02
2022-12-07T10:14:58.945Z,1004.08
2022-12-07T10:15:30.857Z,1004.05
2022-12-07T10:16:29.920Z,1003.99
2022-12-07T10:17:29.872Z,1004.06
2022-12-07T10:18:29.855Z,1004.09
2022-12-07T10:19:29.805Z,1004.06
2022-12-07T10:20:29.781Z,1004.09
2022-12-07T10:21:29.770Z,1004.10
2022-12-07T10:22:31.980Z,1004.12
2022-12-07T10:23:29.854Z,1004.15
2022-12-07T10:24:29.741Z,1004.13
2022-12-07T10:25:29.733Z,1004.10
2022-12-07T10:26:29.739Z,1004.08
2022-12-07T10:27:29.715Z,1004.12
2022-12-07T10:28:29.753Z,1004.11
2022-12-07T10:29:29.685Z,1004.12
2022-12-07T10:30:29.676Z,1004.13
2022-12-07T10:31:29.744Z,1004.08
2022-12-07T10:32:29.650Z,1004.07
2022-12-07T10:33:29.642Z,1004.04
2022-12-07T10:34:29.655Z,1004.04
2022-12-07T10:35:29.632Z,1004.04
2022-12-07T10:36:29.608Z,1004.04
2022-12-07T10:37:29.623Z,1004.00
2022-12-07T10:38:29.623Z,1004.01
2022-12-07T10:39:29.596Z,1004.00
2022-12-07T10:40:29.572Z,1004.02
2022-12-07T10:41:29.560Z,1004.09
2022-12-07T10:42:29.556Z,1004.07
2022-12-07T10:43:29.543Z,1004.01
2022-12-07T10:44:29.532Z,1003.97
2022-12-07T10:45:29.590Z,1004.06
2022-12-07T10:46:29.597Z,1004.03
2022-12-07T10:47:29.555Z,1004.01
2022-12-07T10:48:29.490Z,1003.94
2022-12-07T10:49:29.481Z,1003.94
2022-12-07T10:50:29.482Z,1003.96
2022-12-07T10:51:31.451Z,1004.00
2022-12-07T10:52:29.453Z,1004.02
2022-12-07T10:53:29.433Z,1003.96
2022-12-07T10:54:29.466Z,1003.99
2022-12-07T10:55:29.417Z,1003.97
2022-12-07T10:56:29.394Z,1003.98
2022-12-07T10:57:29.392Z,1004.02
2022-12-07T10:58:29.469Z,1003.98
2022-12-07T10:59:29.372Z,1003.93
2022-12-07T11:00:29.429Z,1003.92
2022-12-07T11:01:29.517Z,1003.91
2022-12-07T11:02:29.426Z,1003.91
2022-12-07T11:03:29.411Z,1003.98
2022-12-07T11:04:29.371Z,1003.86
2022-12-07T11:05:29.325Z,1003.80
2022-12-07T11:06:29.306Z,1003.85
2022-12-07T11:07:29.324Z,1003.84
2022-12-07T11:08:29.341Z,1003.91
2022-12-07T11:09:51.826Z,1003.87
2022-12-07T11:10:30.277Z,1003.89
2022-12-07T11:11:29.249Z,1003.87
2022-12-07T11:12:29.245Z,1003.93
2022-12-07T11:13:29.396Z,1003.87
2022-12-07T11:14:29.251Z,1003.93
2022-12-07T11:15:29.195Z,1003.93
2022-12-07T11:16:29.252Z,1003.94
2022-12-07T11:17:29.279Z,1003.81
2022-12-07T11:18:29.167Z,1003.92
2022-12-07T11:19:29.157Z,1003.80
2022-12-07T11:20:29.172Z,1003.89
2022-12-07T11:21:29.156Z,1003.78
2022-12-07T11:22:29.123Z,1003.86
2022-12-07T11:23:29.128Z,1003.88
2022-12-07T11:24:29.101Z,1003.90
2022-12-07T11:25:29.315Z,1003.90
2022-12-07T11:26:29.134Z,1003.87
2022-12-07T11:27:29.132Z,1003.82
2022-12-07T11:28:29.135Z,1003.79
2022-12-07T11:29:29.053Z,1003.78
2022-12-07T11:30:29.059Z,1003.73
2022-12-07T11:31:29.733Z,1003.78
2022-12-07T11:32:29.035Z,1003.80
2022-12-07T11:33:29.011Z,1003.88
2022-12-07T11:34:29.019Z,1003.78
2022-12-07T11:35:28.981Z,1003.75
2022-12-07T11:36:28.983Z,1003.73
2022-12-07T11:37:29.088Z,1003.70
2022-12-07T11:38:30.069Z,1003.74
2022-12-07T11:39:28.936Z,1003.72
2022-12-07T11:40:28.932Z,1003.76
2022-12-07T11:41:28.928Z,1003.72
2022-12-07T11:42:28.960Z,1003.70
2022-12-07T11:43:28.903Z,1003.77
2022-12-07T11:44:28.893Z,1003.71
2022-12-07T11:45:28.872Z,1003.74
2022-12-07T11:46:28.998Z,1003.72
2022-12-07T11:47:28.912Z,1003.71
2022-12-07T11:48:28.863Z,1003.70
2022-12-07T11:49:28.840Z,1003.75
2022-12-07T11:50:28.835Z,1003.72
2022-12-07T11:51:33.356Z,1003.68
2022-12-07T11:52:28.807Z,1003.70
2022-12-07T11:53:28.811Z,1003.65
2022-12-07T11:54:28.786Z,1003.66
2022-12-07T11:55:28.809Z,1003.66
2022-12-07T11:56:28.771Z,1003.66
2022-12-07T11:57:28.756Z,1003.68
2022-12-07T11:58:28.781Z,1003.67
2022-12-07T11:59:28.741Z,1003.69
2022-12-07T12:00:28.717Z,1003.67
2022-12-07T12:01:28.750Z,1003.63
2022-12-07T12:02:28.763Z,1003.67
2022-12-07T12:03:28.777Z,1003.74
2022-12-07T12:04:28.704Z,1003.61
2022-12-07T12:05:28.680Z,1003.64